Time;durP1;ratioP1;P1;durP2;ratioP2;P2;SDS_P1;SDS_P2;PMS_P1;PMS_P2;Temp;Humidity;BMP_temperature;BMP_pressure;BME280_temperature;BME280_humidity;BME280_pressure;Samples;Min_cycle;Max_cycle;Signal;HPM_P1;HPM_P2
2022/07/11 00:00:58;;;;;;;;;3.00;3.00;;;;;22.62;44.83;101844.31;5041822;28;45676;-72
2022/07/11 00:03:23;;;;;;;;;3.33;3.33;;;;;22.57;44.95;101836.44;5053564;28;45575;-71
2022/07/11 00:05:52;;;;;;;;;3.33;3.33;;;;;22.56;45.15;101828.47;5055024;28;45308;-72
2022/07/11 00:08:17;;;;;;;;;4.00;4.00;;;;;22.58;45.00;101831.97;5040411;28;45884;-70
2022/07/11 00:10:43;;;;;;;;;3.00;3.00;;;;;22.50;45.14;101818.00;5050833;28;46205;-68
2022/07/11 00:13:08;;;;;;;;;3.00;3.00;;;;;22.50;45.07;101823.34;5047921;28;45653;-73
2022/07/11 00:15:34;;;;;;;;;4.00;4.00;;;;;22.44;45.08;101808.38;5057911;28;45558;-74
2022/07/11 00:18:00;;;;;;;;;3.00;3.00;;;;;22.56;45.08;101831.16;5060153;28;45709;-71
2022/07/11 00:20:29;;;;;;;;;3.67;3.67;;;;;22.41;45.17;101821.81;5061746;28;45484;-72
2022/07/11 00:22:55;;;;;;;;;2.67;2.33;;;;;22.48;45.36;101828.72;5038077;28;45596;-70
2022/07/11 00:25:21;;;;;;;;;3.67;3.67;;;;;22.41;45.12;101820.00;5049690;28;45419;-74
2022/07/11 00:27:46;;;;;;;;;5.00;3.00;;;;;22.40;45.07;101818.28;5053843;28;45288;-72
2022/07/11 00:30:12;;;;;;;;;3.00;3.00;;;;;22.48;45.43;101836.72;5054427;28;45323;-72
2022/07/11 00:32:38;;;;;;;;;4.33;3.67;;;;;22.42;45.15;101829.78;5045554;28;45376;-72
2022/07/11 00:35:04;;;;;;;;;3.00;3.00;;;;;22.43;45.13;101831.53;5046800;28;45520;-73
2022/07/11 00:37:29;;;;;;;;;3.33;3.33;;;;;22.54;45.06;101835.66;5038040;28;45338;-66
2022/07/11 00:39:55;;;;;;;;;3.00;3.00;;;;;22.37;45.05;101818.34;5042735;28;46367;-72
2022/07/11 00:42:20;;;;;;;;;4.00;3.67;;;;;22.41;45.09;101813.81;5054513;28;45849;-69
2022/07/11 00:44:46;;;;;;;;;4.00;3.00;;;;;22.57;44.87;101832.91;5048397;28;45387;-70
2022/07/11 00:47:11;;;;;;;;;4.33;3.00;;;;;22.53;45.01;101831.25;5034914;28;45548;-72
2022/07/11 00:49:37;;;;;;;;;4.00;4.00;;;;;22.53;45.19;101826.78;5047878;28;45482;-71
2022/07/11 00:52:06;;;;;;;;;3.00;3.00;;;;;22.33;45.35;101807.81;5055343;28;45399;-71
2022/07/11 00:54:31;;;;;;;;;2.67;2.67;;;;;22.43;45.45;101818.19;5054533;28;45314;-73
2022/07/11 00:56:57;;;;;;;;;3.00;2.00;;;;;22.37;45.22;101806.81;5032965;28;45402;-74
2022/07/11 00:59:27;;;;;;;;;3.00;3.00;;;;;22.45;45.19;101820.81;5043649;28;46220;-71
2022/07/11 01:01:53;;;;;;;;;3.00;3.00;;;;;22.44;45.35;101811.91;5046325;28;45505;-72
2022/07/11 01:04:19;;;;;;;;;3.67;3.00;;;;;22.44;45.24;101811.91;5046571;28;45388;-74
2022/07/11 01:06:45;;;;;;;;;2.00;2.00;;;;;22.38;45.07;101803.22;5054037;28;45178;-73
2022/07/11 01:09:10;;;;;;;;;3.00;3.00;;;;;22.44;45.21;101813.72;5052813;28;45334;-72
2022/07/11 01:11:36;;;;;;;;;2.33;2.33;;;;;22.29;45.25;101779.50;5055439;28;45378;-69
2022/07/11 01:14:01;;;;;;;;;3.00;3.00;;;;;22.38;45.20;101792.56;5060384;28;45326;-70
2022/07/11 01:16:27;;;;;;;;;3.00;3.00;;;;;22.28;45.29;101785.72;5054927;28;45489;-73
2022/07/11 01:18:54;;;;;;;;;4.00;4.00;;;;;22.25;45.62;101789.38;5054441;28;45702;-73
2022/07/11 01:21:30;;;;;;;;;2.67;2.67;;;;;22.30;45.46;101799.91;5053907;28;45455;-69
2022/07/11 01:23:58;;;;;;;;;4.00;3.00;;;;;22.26;45.47;101787.56;5054201;28;45485;-72
2022/07/11 01:26:25;;;;;;;;;4.67;3.00;;;;;22.26;45.46;101798.25;5055479;28;45368;-71
2022/07/11 01:28:51;;;;;;;;;3.00;3.00;;;;;22.26;45.50;101804.47;5056852;28;45331;-70
2022/07/11 01:31:17;;;;;;;;;3.67;3.00;;;;;22.13;45.94;101781.69;5045539;28;45272;-70
2022/07/11 01:33:43;;;;;;;;;3.00;3.00;;;;;22.12;45.44;101790.63;5050114;28;45579;-68
2022/07/11 01:36:09;;;;;;;;;3.00;3.00;;;;;22.17;45.57;101796.72;5047379;28;45477;-72
2022/07/11 01:38:36;;;;;;;;;4.00;2.00;;;;;22.17;45.95;101804.72;5043823;28;45531;-68
2022/07/11 01:41:01;;;;;;;;;2.00;2.00;;;;;22.12;45.85;101811.97;5053078;28;45293;-71
2022/07/11 01:43:27;;;;;;;;;2.33;2.33;;;;;22.05;45.86;101795.28;5053527;28;45438;-74
2022/07/11 01:45:54;;;;;;;;;3.00;3.00;;;;;22.20;45.69;101815.28;5054058;28;45496;-70
2022/07/11 01:48:21;;;;;;;;;3.00;3.00;;;;;22.21;45.74;101811.75;5053298;28;45441;-72
2022/07/11 01:50:48;;;;;;;;;2.67;2.67;;;;;22.18;45.74;101807.31;5035564;28;45469;-72
2022/07/11 01:53:14;;;;;;;;;4.00;2.00;;;;;22.14;45.89;101800.34;5053298;28;45557;-72
2022/07/11 01:55:40;;;;;;;;;3.00;3.00;;;;;22.20;45.65;101807.28;5054013;28;45397;-72
2022/07/11 01:58:06;;;;;;;;;2.33;2.33;;;;;22.20;45.59;101807.28;5053607;28;45498;-69
2022/07/11 02:00:31;;;;;;;;;2.00;2.00;;;;;22.14;45.51;101813.69;5053339;28;45889;-71
2022/07/11 02:02:57;;;;;;;;;3.00;3.00;;;;;22.08;45.79;101799.63;5035251;28;45739;-73
2022/07/11 02:05:22;;;;;;;;;3.00;3.00;;;;;22.00;45.42;101799.88;5035126;28;45663;-73
2022/07/11 02:10:32;;;;;;;;;3.00;3.00;;;;;21.90;46.29;101801.94;5053526;28;45490;-73
2022/07/11 02:12:59;;;;;;;;;3.00;3.00;;;;;21.92;46.46;101804.53;5053362;28;45540;-71
2022/07/11 02:15:26;;;;;;;;;2.33;2.33;;;;;21.91;46.10;101811.66;5056874;28;45465;-73
2022/07/11 02:17:55;;;;;;;;;4.00;3.00;;;;;21.86;46.43;101804.72;5052285;28;45949;-73
2022/07/11 02:20:34;;;;;;;;;3.00;3.00;;;;;21.89;46.44;101815.28;5056253;28;45536;-73
2022/07/11 02:23:00;;;;;;;;;2.00;2.00;;;;;21.89;46.27;101813.50;5057334;28;45347;-73
2022/07/11 02:25:26;;;;;;;;;3.67;3.67;;;;;21.88;46.52;101813.53;5056731;28;45722;-69
2022/07/11 02:27:52;;;;;;;;;3.00;3.00;;;;;21.80;46.67;101819.94;5056234;28;46220;-69
2022/07/11 02:30:18;;;;;;;;;3.00;3.00;;;;;21.74;46.35;101803.28;5038111;28;45317;-72
2022/07/11 02:32:43;;;;;;;;;3.00;3.00;;;;;21.73;46.63;101805.03;5056267;28;45732;-70
2022/07/11 02:35:09;;;;;;;;;2.33;2.33;;;;;21.79;46.71;101806.69;5057575;28;45445;-70
2022/07/11 02:37:35;;;;;;;;;3.33;3.33;;;;;21.78;46.45;101802.25;5039109;28;45937;-70
2022/07/11 02:40:01;;;;;;;;;3.00;3.00;;;;;21.57;46.76;101782.41;5040843;28;45281;-69
2022/07/11 02:42:26;;;;;;;;;2.00;2.00;;;;;21.77;46.56;101809.38;5054292;28;45571;-73
2022/07/11 02:44:52;;;;;;;;;3.00;3.00;;;;;21.79;46.85;101806.69;5056189;28;45388;-73
2022/07/11 02:47:17;;;;;;;;;4.00;3.00;;;;;21.77;46.60;101800.50;5038124;28;45725;-73
2022/07/11 02:49:43;;;;;;;;;3.00;3.00;;;;;21.74;46.58;101812.13;5056195;28;45461;-70
2022/07/11 02:52:09;;;;;;;;;4.33;2.67;;;;;21.73;47.06;101820.16;5056989;28;45444;-72
2022/07/11 02:54:34;;;;;;;;;3.00;3.00;;;;;21.70;46.98;101809.59;5059132;28;45430;-73
2022/07/11 02:57:00;;;;;;;;;2.67;2.67;;;;;21.66;46.93;101792.78;5056669;28;45452;-72
2022/07/11 02:59:26;;;;;;;;;3.00;3.00;;;;;21.65;47.02;101799.06;5056198;28;45258;-71
2022/07/11 03:01:52;;;;;;;;;3.00;3.00;;;;;21.64;46.77;101799.09;5060779;28;45517;-74
2022/07/11 03:04:17;;;;;;;;;3.00;3.00;;;;;21.52;46.82;101766.53;5060581;28;45320;-70
2022/07/11 03:06:43;;;;;;;;;3.33;3.00;;;;;21.68;47.06;101800.75;5060248;28;45383;-71
2022/07/11 03:09:09;;;;;;;;;2.33;2.33;;;;;21.42;47.22;101762.34;5056930;28;45345;-70
2022/07/11 03:11:35;;;;;;;;;3.00;3.00;;;;;21.65;47.19;101807.06;5056043;28;45388;-72
2022/07/11 03:14:01;;;;;;;;;3.00;3.00;;;;;21.39;47.45;101786.41;5056134;28;46101;-71
2022/07/11 03:16:28;;;;;;;;;0.67;0.67;;;;;21.42;47.48;101785.47;5055869;28;45365;-74
2022/07/11 03:18:54;;;;;;;;;3.00;3.00;;;;;21.54;47.16;101798.47;5054256;28;45432;-71
2022/07/11 03:21:19;;;;;;;;;2.67;2.67;;;;;21.43;47.43;101773.88;5055530;28;45327;-71
2022/07/11 03:23:45;;;;;;;;;3.00;3.00;;;;;21.32;47.31;101748.38;5037831;28;45425;-73
2022/07/11 03:26:11;;;;;;;;;3.00;3.00;;;;;21.59;47.28;101788.53;5056052;28;45403;-74
2022/07/11 03:28:37;;;;;;;;;4.00;2.67;;;;;21.50;47.24;101792.34;5055866;28;45961;-72
2022/07/11 03:31:03;;;;;;;;;3.00;3.00;;;;;21.48;47.45;101788.84;5034104;28;45556;-72
2022/07/11 03:33:29;;;;;;;;;3.33;3.33;;;;;21.54;47.32;101802.00;5053967;28;45460;-72
2022/07/11 03:35:54;;;;;;;;;2.00;2.00;;;;;21.43;47.67;101785.44;5038632;28;45572;-73
2022/07/11 03:38:20;;;;;;;;;3.00;3.00;;;;;21.54;47.46;101812.66;5055429;28;45494;-71
2022/07/11 03:40:47;;;;;;;;;2.33;2.33;;;;;21.50;47.41;101802.16;5047374;28;45418;-73
2022/07/11 03:43:15;;;;;;;;;3.00;3.00;;;;;21.50;47.48;101803.03;5055290;28;45651;-68
2022/07/11 03:45:41;;;;;;;;;3.00;3.00;;;;;21.49;47.42;101811.03;5042163;28;46438;-73
2022/07/11 03:48:07;;;;;;;;;4.67;2.67;;;;;21.35;47.74;101787.38;5060229;28;45538;-72
2022/07/11 03:50:34;;;;;;;;;3.00;3.00;;;;;21.42;47.56;101794.34;5061376;28;45464;-70
2022/07/11 03:53:00;;;;;;;;;5.33;4.00;;;;;21.36;47.77;101802.47;5060416;28;45548;-71
2022/07/11 03:55:25;;;;;;;;;3.00;3.00;;;;;21.38;47.94;101801.53;5057951;28;45545;-67
2022/07/11 03:57:51;;;;;;;;;3.00;3.00;;;;;21.28;48.13;101796.44;5058609;28;45407;-72
2022/07/11 04:00:19;;;;;;;;;3.67;3.67;;;;;21.29;47.99;101796.44;5057097;28;45560;-73
2022/07/11 04:02:44;;;;;;;;;4.67;3.33;;;;;21.28;48.18;101805.31;5059503;28;45398;-70
2022/07/11 04:05:10;;;;;;;;;3.33;3.00;;;;;21.30;48.34;101806.16;5057551;28;45599;-72
2022/07/11 04:07:36;;;;;;;;;3.00;3.00;;;;;21.30;48.20;101807.94;5055969;28;45468;-72
2022/07/11 04:10:02;;;;;;;;;3.00;3.00;;;;;21.26;48.25;101803.59;5055143;28;45540;-73
2022/07/11 04:12:27;;;;;;;;;3.00;3.00;;;;;21.29;48.34;101792.88;5055766;28;45514;-72
2022/07/11 04:14:53;;;;;;;;;2.00;2.00;;;;;21.24;48.21;101782.34;5057930;28;45407;-70
2022/07/11 04:17:18;;;;;;;;;3.67;3.00;;;;;21.27;47.99;101792.06;5055023;28;45681;-73
2022/07/11 04:19:45;;;;;;;;;3.00;3.00;;;;;21.16;48.39;101774.53;5034393;28;45522;-73
2022/07/11 04:22:10;;;;;;;;;4.00;3.00;;;;;21.24;48.66;101800.13;5046957;28;45415;-72
2022/07/11 04:24:36;;;;;;;;;3.00;3.00;;;;;21.19;48.34;101786.94;5054343;28;45594;-71
2022/07/11 04:27:02;;;;;;;;;3.00;3.00;;;;;21.11;48.45;101772.91;5032902;28;45561;-70
2022/07/11 04:29:41;;;;;;;;;4.33;4.33;;;;;21.27;48.28;101782.25;5032629;28;45756;-71
2022/07/11 04:32:07;;;;;;;;;3.33;3.00;;;;;21.21;48.16;101771.75;5054907;28;45650;-71
2022/07/11 04:34:33;;;;;;;;;6.00;4.00;;;;;21.45;48.23;101798.69;5053875;28;45387;-73
2022/07/11 04:36:59;;;;;;;;;5.00;3.67;;;;;21.47;48.36;101803.06;5040533;28;45447;-73
2022/07/11 04:39:24;;;;;;;;;3.00;3.00;;;;;21.50;47.99;101805.69;5054626;28;45510;-71
2022/07/11 04:41:51;;;;;;;;;4.33;4.33;;;;;21.24;47.85;101747.72;5055091;28;45500;-72
2022/07/11 04:44:16;;;;;;;;;7.00;3.67;;;;;21.42;48.12;101799.66;5052821;28;46018;-72
2022/07/11 04:46:42;;;;;;;;;3.00;3.00;;;;;21.56;47.68;101813.50;5054917;28;45689;-70
2022/07/11 04:49:07;;;;;;;;;3.67;3.67;;;;;21.68;48.00;101828.28;5056097;28;46003;-74
2022/07/11 04:51:33;;;;;;;;;5.00;4.00;;;;;21.81;47.66;101832.38;5056002;28;45473;-70
2022/07/11 04:53:58;;;;;;;;;2.33;2.33;;;;;21.85;47.97;101825.16;5054814;28;45362;-73
2022/07/11 04:56:24;;;;;;;;;4.00;4.00;;;;;21.96;47.51;101824.88;5055553;28;45541;-73
2022/07/11 04:58:50;;;;;;;;;5.67;4.00;;;;;22.02;46.98;101819.38;5054311;28;45362;-71
2022/07/11 05:01:15;;;;;;;;;5.00;3.00;;;;;22.02;47.06;101828.25;5054610;28;45324;-69
2022/07/11 05:03:41;;;;;;;;;5.00;5.00;;;;;22.02;47.15;101825.59;5054852;28;45477;-72
2022/07/11 05:06:07;;;;;;;;;4.67;4.67;;;;;21.87;47.43;101814.47;5033108;28;45606;-74
2022/07/11 05:08:36;;;;;;;;;4.00;4.00;;;;;22.02;47.31;101824.72;5054618;28;45481;-70
2022/07/11 05:11:03;;;;;;;;;4.00;4.00;;;;;22.00;46.96;101819.41;5057278;28;46206;-74
2022/07/11 05:13:29;;;;;;;;;4.67;4.67;;;;;22.18;46.66;101830.47;5051751;28;46113;-70
2022/07/11 05:15:55;;;;;;;;;4.00;4.00;;;;;22.10;46.91;101819.16;5045021;28;45829;-73
2022/07/11 05:18:21;;;;;;;;;4.67;4.67;;;;;22.07;46.87;101824.56;5036505;28;45380;-73
2022/07/11 05:20:48;;;;;;;;;5.00;4.00;;;;;21.76;47.08;101790.78;5051627;28;45339;-73
2022/07/11 05:23:14;;;;;;;;;4.33;3.00;;;;;22.07;47.11;101837.88;5039528;28;45512;-73
2022/07/11 05:25:39;;;;;;;;;6.67;4.00;;;;;22.02;46.97;101809.56;5051859;28;45560;-72
2022/07/11 05:28:05;;;;;;;;;5.00;4.67;;;;;22.11;46.86;101832.44;5051445;28;45486;-74
2022/07/11 05:30:31;;;;;;;;;5.33;4.33;;;;;22.11;46.58;101815.53;5038798;28;45588;-71
2022/07/11 05:32:57;;;;;;;;;5.33;4.00;;;;;22.27;46.73;101842.69;5037725;28;45563;-72
2022/07/11 05:35:30;;;;;;;;;4.00;4.00;;;;;22.38;46.57;101843.28;5052296;28;45454;-66
2022/07/11 05:37:56;;;;;;;;;6.00;5.00;;;;;22.45;46.48;101847.50;5043248;28;45600;-71
2022/07/11 05:40:21;;;;;;;;;5.67;4.67;;;;;22.52;46.35;101850.84;5038100;28;45559;-74
2022/07/11 05:42:47;;;;;;;;;5.67;5.67;;;;;22.42;46.40;101820.88;5033144;28;45966;-74
2022/07/11 05:45:13;;;;;;;;;6.33;5.67;;;;;22.70;46.16;101844.94;5033836;28;45564;-69
2022/07/11 05:47:38;;;;;;;;;5.00;5.00;;;;;22.74;46.22;101845.75;5033265;28;45593;-71
2022/07/11 05:50:05;;;;;;;;;4.33;4.33;;;;;22.52;46.05;101808.13;5033094;28;45519;-75
2022/07/11 05:52:31;;;;;;;;;6.00;4.00;;;;;22.71;46.04;101829.78;5033037;28;45686;-74
2022/07/11 05:55:00;;;;;;;;;6.00;6.00;;;;;22.92;45.74;101838.91;5032878;28;45646;-74
2022/07/11 05:57:25;;;;;;;;;5.00;5.00;;;;;22.93;45.55;101838.00;5033748;28;45438;-72
2022/07/11 05:59:53;;;;;;;;;6.67;5.00;;;;;22.93;45.42;101835.34;5033604;28;45407;-73
2022/07/11 06:02:18;;;;;;;;;5.67;5.67;;;;;22.92;45.61;101846.94;5046946;28;45978;-72
2022/07/11 06:04:44;;;;;;;;;7.00;4.67;;;;;23.04;45.50;101847.47;5043924;28;45458;-74
2022/07/11 06:07:10;;;;;;;;;4.00;4.00;;;;;23.21;45.14;101844.22;5034927;28;45514;-73
2022/07/11 06:09:36;;;;;;;;;5.33;5.33;;;;;23.04;44.92;101803.81;5033575;28;45615;-73
2022/07/11 06:12:02;;;;;;;;;7.00;5.67;;;;;23.22;44.65;101823.72;5033143;28;45662;-75
2022/07/11 06:14:28;;;;;;;;;6.00;4.33;;;;;23.20;44.41;101822.91;5033361;28;45806;-71
2022/07/11 06:16:54;;;;;;;;;4.00;4.00;;;;;23.32;44.49;101834.97;5033532;28;45368;-69
2022/07/11 06:19:20;;;;;;;;;6.00;6.00;;;;;23.46;44.36;101854.09;5032996;28;45452;-73
2022/07/11 06:21:48;;;;;;;;;4.00;4.00;;;;;23.50;44.62;101842.38;5032517;28;46964;-71
2022/07/11 06:24:20;;;;;;;;;5.33;5.33;;;;;23.66;44.40;101861.44;5035052;28;45475;-74
2022/07/11 06:26:46;;;;;;;;;5.67;5.00;;;;;23.36;44.19;101799.19;5026176;28;45879;-71
2022/07/11 06:29:12;;;;;;;;;7.00;5.00;;;;;23.75;44.09;101861.13;5039807;28;45635;-76
2022/07/11 06:31:38;;;;;;;;;7.33;5.67;;;;;23.55;44.04;101813.66;5033552;28;45852;-73
2022/07/11 06:34:04;;;;;;;;;6.00;6.00;;;;;23.58;44.13;101826.06;5032795;28;45353;-76
2022/07/11 06:36:29;;;;;;;;;5.00;5.00;;;;;23.72;44.14;101847.84;5043156;28;45493;-74
2022/07/11 06:38:55;;;;;;;;;6.67;5.00;;;;;23.88;44.09;101853.56;5052747;28;45304;-76
2022/07/11 06:41:21;;;;;;;;;10.00;8.00;;;;;24.00;43.89;101858.47;5052598;28;45391;-73
2022/07/11 06:43:47;;;;;;;;;5.33;5.00;;;;;23.85;44.21;101851.88;5052094;28;45407;-69
2022/07/11 06:46:16;;;;;;;;;4.00;4.00;;;;;23.85;43.63;101824.25;5052261;28;45351;-68
2022/07/11 06:48:42;;;;;;;;;5.00;4.00;;;;;24.02;43.85;101845.03;5052623;28;45398;-70
2022/07/11 06:51:09;;;;;;;;;8.00;6.00;;;;;24.01;43.53;101849.47;5052496;28;46267;-68
2022/07/11 06:53:34;;;;;;;;;5.00;5.00;;;;;23.85;43.63;101808.19;5031932;28;45533;-76
2022/07/11 06:56:00;;;;;;;;;5.00;5.00;;;;;24.06;43.52;101835.94;5045390;28;45518;-74
2022/07/11 06:58:31;;;;;;;;;4.67;4.67;;;;;24.10;43.36;101834.91;5046072;28;45459;-69
2022/07/11 07:01:02;;;;;;;;;5.33;4.67;;;;;24.01;43.32;101825.41;5030733;28;45641;-71
2022/07/11 07:03:29;;;;;;;;;5.00;5.00;;;;;24.11;43.58;101834.84;5043415;28;45592;-67
2022/07/11 07:05:56;;;;;;;;;5.00;5.00;;;;;24.34;42.97;101843.81;5046838;28;45684;-76
2022/07/11 07:08:26;;;;;;;;;6.33;5.00;;;;;24.22;42.67;101842.47;5049808;28;45452;-75
2022/07/11 07:10:52;;;;;;;;;4.67;4.67;;;;;24.19;42.87;101849.75;5052341;28;46082;-76
2022/07/11 07:13:19;;;;;;;;;4.33;4.33;;;;;24.23;42.48;101844.22;5041115;28;45356;-75
2022/07/11 07:15:45;;;;;;;;;3.33;3.00;;;;;24.31;42.74;101849.28;5044994;28;45446;-75
2022/07/11 07:18:11;;;;;;;;;3.00;3.00;;;;;24.31;42.49;101826.06;5018313;28;45686;-75
2022/07/11 07:20:37;;;;;;;;;5.00;4.67;;;;;24.53;42.00;101834.16;5035497;28;46668;-76
2022/07/11 07:23:03;;;;;;;;;4.67;3.00;;;;;24.64;41.89;101830.22;5037213;28;45857;-75
2022/07/11 07:25:28;;;;;;;;;3.00;3.00;;;;;24.75;41.48;101826.16;5042681;28;45252;-74
2022/07/11 07:27:54;;;;;;;;;4.00;4.00;;;;;24.73;41.75;101833.38;5044249;28;45576;-73
2022/07/11 07:30:20;;;;;;;;;3.67;3.67;;;;;24.80;41.80;101851.91;5037892;28;45352;-71
2022/07/11 07:32:45;;;;;;;;;3.00;3.00;;;;;24.86;41.38;101840.94;5039851;28;45645;-74
2022/07/11 07:35:12;;;;;;;;;5.00;3.67;;;;;24.85;41.47;101840.06;5041161;28;45427;-73
2022/07/11 07:37:37;;;;;;;;;3.33;3.33;;;;;24.69;41.09;101830.91;5058535;28;45806;-73
2022/07/11 07:40:06;;;;;;;;;2.33;2.33;;;;;24.85;41.79;101850.78;5030237;28;45868;-72
2022/07/11 07:42:31;;;;;;;;;6.67;4.67;;;;;24.83;41.55;101822.31;5050047;28;45425;-73
2022/07/11 07:44:57;;;;;;;;;5.00;4.00;;;;;24.99;41.29;101834.16;5052482;28;45525;-70
2022/07/11 07:47:23;;;;;;;;;6.00;4.00;;;;;25.17;40.56;101848.59;5049782;28;46424;-73
2022/07/11 07:49:49;;;;;;;;;4.33;3.33;;;;;25.11;40.25;101819.38;5048509;28;46082;-74
2022/07/11 07:52:30;;;;;;;;;3.00;3.00;;;;;25.44;40.45;101849.28;5042742;28;45512;-72
2022/07/11 07:55:10;;;;;;;;;5.00;2.33;;;;;25.60;39.65;101852.16;5049060;28;46078;-72
2022/07/11 07:57:37;;;;;;;;;4.67;4.00;;;;;25.62;40.14;101860.16;5045874;28;45481;-68
2022/07/11 08:02:52;;;;;;;;;6.33;4.67;;;;;25.41;40.06;101854.75;5048139;28;45916;-72
2022/07/11 08:05:18;;;;;;;;;4.00;3.00;;;;;25.36;40.15;101851.41;5034219;28;45514;-72
2022/07/11 08:07:44;;;;;;;;;4.00;4.00;;;;;25.07;39.80;101815.94;5038935;28;46197;-72
2022/07/11 08:10:10;;;;;;;;;3.33;3.33;;;;;25.22;40.46;101841.25;5020291;28;46222;-74
2022/07/11 08:12:36;;;;;;;;;3.67;3.67;;;;;25.41;40.40;101848.53;5038264;28;45316;-73
2022/07/11 08:15:02;;;;;;;;;5.00;2.00;;;;;25.41;39.82;101821.69;5036022;28;45394;-72
2022/07/11 08:17:28;;;;;;;;;3.33;2.67;;;;;25.68;39.89;101850.03;5034938;28;45384;-73
2022/07/11 08:19:54;;;;;;;;;4.00;4.00;;;;;25.62;39.89;101852.09;5046735;28;45863;-72
2022/07/11 08:22:19;;;;;;;;;3.67;3.67;;;;;25.54;39.81;101839.88;5034543;28;45896;-75
2022/07/11 08:24:45;;;;;;;;;5.00;3.00;;;;;25.65;39.67;101842.13;5033772;28;45621;-72
2022/07/11 08:27:10;;;;;;;;;3.00;3.00;;;;;25.66;39.79;101838.47;5038446;28;45865;-72
2022/07/11 08:29:36;;;;;;;;;3.00;3.00;;;;;25.67;39.57;101837.53;5042737;28;45445;-72
2022/07/11 08:32:02;;;;;;;;;3.25;3.25;;;;;25.55;39.56;101803.19;5037475;28;45366;-72
2022/07/11 08:34:36;;;;;;;;;4.00;3.00;;;;;25.65;39.69;101839.44;5038872;28;45405;-73
2022/07/11 08:37:02;;;;;;;;;4.00;4.00;;;;;25.40;40.05;101812.78;5049797;28;45476;-72
2022/07/11 08:39:27;;;;;;;;;4.67;3.00;;;;;25.54;40.47;101807.69;5054091;28;45812;-73
2022/07/11 08:41:55;;;;;;;;;3.00;3.00;;;;;25.58;39.94;101801.28;5054106;28;45525;-73
2022/07/11 08:44:20;;;;;;;;;4.00;3.00;;;;;25.40;40.19;101775.25;5036119;28;45517;-74
2022/07/11 08:46:48;;;;;;;;;5.33;4.00;;;;;25.65;40.94;101806.34;5054120;28;45484;-72
2022/07/11 08:49:13;;;;;;;;;6.67;4.33;;;;;25.72;40.63;101805.13;5057396;28;46018;-70
2022/07/11 08:51:39;;;;;;;;;4.00;4.00;;;;;25.82;39.95;101801.13;5054291;28;45446;-73
2022/07/11 08:54:05;;;;;;;;;4.00;3.00;;;;;25.79;39.63;101790.50;5054089;28;45499;-72
2022/07/11 08:56:32;;;;;;;;;4.00;4.00;;;;;25.88;40.03;101800.00;5036385;28;46049;-72
2022/07/11 08:59:00;;;;;;;;;4.33;4.00;;;;;25.95;39.98;101785.34;5053898;28;46315;-73
2022/07/11 09:01:31;;;;;;;;;4.50;4.50;;;;;25.96;39.63;101796.03;5053903;28;45433;-73
2022/07/11 09:03:58;;;;;;;;;5.67;3.33;;;;;25.96;39.80;101795.13;5032448;28;45449;-72
2022/07/11 09:06:24;;;;;;;;;4.00;4.00;;;;;25.91;39.91;101767.63;5052446;28;45287;-72
2022/07/11 09:09:00;;;;;;;;;4.25;4.25;;;;;26.09;39.65;101777.53;5054949;28;45997;-74
2022/07/11 09:11:26;;;;;;;;;4.33;4.33;;;;;26.29;39.07;101783.75;5056849;28;45388;-72
2022/07/11 09:13:52;;;;;;;;;4.33;4.33;;;;;26.24;39.46;101800.09;5058355;28;45276;-71
2022/07/11 09:16:21;;;;;;;;;4.50;3.00;;;;;26.25;39.17;101788.44;5054389;28;45679;-73
2022/07/11 09:18:46;;;;;;;;;4.67;4.67;;;;;26.15;39.65;101796.03;5054492;28;45512;-73
2022/07/11 09:26:51;;;;;;;;;4.50;3.00;;;;;26.25;39.42;101785.75;5053470;28;45768;-71
2022/07/11 09:29:26;;;;;;;;;4.67;4.00;;;;;26.36;39.31;101786.13;5056289;28;45522;-71
2022/07/11 09:31:51;;;;;;;;;4.00;4.00;;;;;26.49;39.02;101786.38;5053294;28;45439;-72
2022/07/11 09:34:19;;;;;;;;;4.00;4.00;;;;;26.60;39.19;101789.47;5055754;28;45406;-72
2022/07/11 09:36:56;;;;;;;;;4.00;4.00;;;;;26.63;38.92;101783.06;5058213;28;45212;-72
2022/07/11 09:39:24;;;;;;;;;4.00;4.00;;;;;26.61;39.22;101775.06;5053217;28;45958;-72
2022/07/11 09:41:53;;;;;;;;;4.50;4.00;;;;;26.61;39.79;101780.44;5053310;28;45331;-73
2022/07/11 09:44:28;;;;;;;;;4.75;3.75;;;;;26.63;38.86;101772.31;5035021;28;45430;-69
2022/07/11 09:46:55;;;;;;;;;4.50;4.00;;;;;26.68;38.87;101775.63;5053576;28;45356;-72
2022/07/11 09:49:37;;;;;;;;;5.00;3.50;;;;;26.72;39.04;101777.25;5056403;28;46261;-72
2022/07/11 09:52:15;;;;;;;;;2.33;1.33;;;;;26.78;39.14;101779.59;5057709;28;45377;-73
2022/07/11 09:55:00;;;;;;;;;7.33;3.67;;;;;26.83;38.50;101779.38;5055943;28;45364;-72
2022/07/11 09:57:37;;;;;;;;;4.25;3.00;;;;;26.70;38.51;101756.78;5036445;28;45926;-72
2022/07/11 10:00:11;;;;;;;;;5.50;5.50;;;;;26.84;38.30;101771.25;5034754;28;47403;-71
2022/07/11 10:02:37;;;;;;;;;6.00;6.00;;;;;26.93;38.35;101774.41;5052841;28;45339;-72
2022/07/11 10:05:04;;;;;;;;;5.00;5.00;;;;;26.95;38.43;101765.31;5053204;28;45417;-70
2022/07/11 10:07:30;;;;;;;;;5.00;5.00;;;;;27.03;38.30;101764.94;5053650;28;45656;-73
2022/07/11 10:09:57;;;;;;;;;4.00;4.00;;;;;26.97;38.18;101773.31;5052872;28;45494;-72
2022/07/11 10:12:24;;;;;;;;;4.00;4.00;;;;;26.82;38.25;101751.63;5035241;28;45441;-69
2022/07/11 10:14:50;;;;;;;;;3.33;3.33;;;;;26.94;38.39;101776.16;5056162;28;45361;-72
2022/07/11 10:17:47;;;;;;;;;5.00;4.00;;;;;27.00;38.30;101760.59;5053326;28;45374;-73
2022/07/11 10:20:40;;;;;;;;;2.75;2.75;;;;;27.18;38.20;101774.03;5038411;28;46025;-69
2022/07/11 10:23:27;;;;;;;;;3.25;3.00;;;;;27.29;38.18;101771.72;5052678;28;45868;-74
2022/07/11 10:26:07;;;;;;;;;3.00;3.00;;;;;27.36;37.39;101774.94;5054875;28;45424;-71
2022/07/11 10:29:01;;;;;;;;;4.00;4.00;;;;;27.35;37.85;101767.81;5054923;28;45475;-69
2022/07/11 10:31:30;;;;;;;;;3.50;3.50;;;;;27.41;37.78;101767.50;5049669;28;46335;-73
2022/07/11 10:34:18;;;;;;;;;4.25;4.25;;;;;27.40;37.60;101781.91;5046301;28;45765;-73
2022/07/11 10:36:47;;;;;;;;;4.00;2.00;;;;;27.41;37.44;101776.44;5028714;28;45268;-72
2022/07/11 10:39:15;;;;;;;;;3.50;3.00;;;;;27.44;37.34;101778.97;5031462;28;45505;-72
2022/07/11 10:41:40;;;;;;;;;3.50;3.50;;;;;27.46;37.25;101768.13;5046755;28;46542;-70
2022/07/11 10:44:07;;;;;;;;;4.25;3.00;;;;;27.55;37.48;101764.97;5056476;28;45813;-71
2022/07/11 10:46:35;;;;;;;;;3.25;3.25;;;;;27.58;37.34;101761.22;5057293;28;45375;-72
2022/07/11 10:49:13;;;;;;;;;3.00;3.00;;;;;27.76;37.10;101771.00;5058742;28;45409;-70
2022/07/11 10:51:52;;;;;;;;;3.75;3.75;;;;;27.76;36.91;101760.22;5058153;28;45772;-70
2022/07/11 10:54:17;;;;;;;;;5.00;5.00;;;;;27.89;37.12;101764.03;5039545;28;45844;-70
2022/07/11 10:56:49;;;;;;;;;3.00;3.00;;;;;27.89;36.64;101766.72;5058122;28;45292;-71
2022/07/11 10:59:19;;;;;;;;;3.00;3.00;;;;;27.78;36.62;101742.16;5058714;28;45656;-71
2022/07/11 11:02:06;;;;;;;;;4.25;4.25;;;;;27.91;36.37;101761.28;5039591;28;47429;-71
2022/07/11 11:05:03;;;;;;;;;4.00;4.00;;;;;27.84;36.03;101739.19;5058425;28;45459;-72
2022/07/11 11:07:29;;;;;;;;;4.50;4.00;;;;;28.06;36.33;101773.00;5056257;28;45976;-71
2022/07/11 11:09:55;;;;;;;;;6.00;3.00;;;;;28.04;36.28;101773.09;5057766;28;45517;-70
2022/07/11 11:12:40;;;;;;;;;3.00;3.00;;;;;28.02;36.15;101766.91;5035683;28;47953;-70
2022/07/11 11:15:31;;;;;;;;;4.50;3.00;;;;;27.89;36.26;101755.94;5054896;28;45594;-71
2022/07/11 11:17:57;;;;;;;;;3.00;3.00;;;;;27.87;36.46;101719.31;5055339;28;45466;-70
2022/07/11 11:20:32;;;;;;;;;4.50;4.50;;;;;28.26;35.98;101756.63;5056034;28;45438;-71
2022/07/11 11:23:09;;;;;;;;;3.00;3.00;;;;;28.32;35.84;101721.22;5055273;28;45718;-72
2022/07/11 11:25:34;;;;;;;;;4.50;3.00;;;;;28.58;35.28;101751.25;5055922;28;45570;-72
2022/07/11 11:28:04;;;;;;;;;6.00;5.00;;;;;28.57;35.74;101751.31;5056144;28;45461;-71
2022/07/11 11:30:31;;;;;;;;;3.25;3.25;;;;;28.58;35.07;101739.59;5056412;28;45466;-72
2022/07/11 11:32:57;;;;;;;;;4.00;4.00;;;;;28.57;35.26;101744.13;5057247;28;45702;-71
2022/07/11 11:35:23;;;;;;;;;3.00;3.00;;;;;28.63;35.22;101741.06;5041431;28;45493;-71
2022/07/11 11:37:49;;;;;;;;;3.00;3.00;;;;;28.79;35.24;101737.47;5056187;28;45392;-71